sensor_id;sensor_type;location;lat;lon;timestamp;P1;durP1;ratioP1;P2;durP2;ratioP2
9056;SDS011;4563;54.756;9.400;2024-02-21T00:02:20;1.77;;;0.50;;
9056;SDS011;4563;54.756;9.400;2024-02-21T00:04:46;0.80;;;0.40;;
9056;SDS011;4563;54.756;9.400;2024-02-21T00:07:13;0.43;;;0.30;;
9056;SDS011;4563;54.756;9.400;2024-02-21T00:09:40;1.33;;;0.40;;
9056;SDS011;4563;54.756;9.400;2024-02-21T00:12:08;0.50;;;0.30;;
9056;SDS011;4563;54.756;9.400;2024-02-21T00:14:35;1.07;;;0.50;;
9056;SDS011;4563;54.756;9.400;2024-02-21T00:17:02;1.13;;;0.40;;
9056;SDS011;4563;54.756;9.400;2024-02-21T00:19:28;1.13;;;0.40;;
9056;SDS011;4563;54.756;9.400;2024-02-21T00:21:55;0.70;;;0.40;;
9056;SDS011;4563;54.756;9.400;2024-02-21T00:24:22;1.47;;;0.40;;
9056;SDS011;4563;54.756;9.400;2024-02-21T00:26:49;1.13;;;0.40;;
9056;SDS011;4563;54.756;9.400;2024-02-21T00:29:17;0.37;;;0.30;;
9056;SDS011;4563;54.756;9.400;2024-02-21T00:31:43;0.80;;;0.40;;
9056;SDS011;4563;54.756;9.400;2024-02-21T00:34:10;1.10;;;0.37;;
9056;SDS011;4563;54.756;9.400;2024-02-21T00:36:38;0.83;;;0.30;;
9056;SDS011;4563;54.756;9.400;2024-02-21T00:39:05;0.30;;;0.30;;
9056;SDS011;4563;54.756;9.400;2024-02-21T00:41:31;0.43;;;0.23;;
9056;SDS011;4563;54.756;9.400;2024-02-21T00:43:58;0.77;;;0.30;;
9056;SDS011;4563;54.756;9.400;2024-02-21T00:46:26;0.47;;;0.20;;
9056;SDS011;4563;54.756;9.400;2024-02-21T00:48:53;1.03;;;0.50;;
9056;SDS011;4563;54.756;9.400;2024-02-21T00:51:20;0.30;;;0.30;;
9056;SDS011;4563;54.756;9.400;2024-02-21T00:53:46;0.60;;;0.23;;
9056;SDS011;4563;54.756;9.400;2024-02-21T00:56:13;0.30;;;0.20;;
9056;SDS011;4563;54.756;9.400;2024-02-21T00:58:40;0.63;;;0.30;;
9056;SDS011;4563;54.756;9.400;2024-02-21T01:01:07;0.73;;;0.33;;
9056;SDS011;4563;54.756;9.400;2024-02-21T01:03:35;0.83;;;0.30;;
9056;SDS011;4563;54.756;9.400;2024-02-21T01:06:02;0.53;;;0.40;;
9056;SDS011;4563;54.756;9.400;2024-02-21T01:08:28;0.40;;;0.30;;
9056;SDS011;4563;54.756;9.400;2024-02-21T01:10:55;0.20;;;0.20;;
9056;SDS011;4563;54.756;9.400;2024-02-21T01:13:22;0.83;;;0.40;;
9056;SDS011;4563;54.756;9.400;2024-02-21T01:15:49;0.90;;;0.40;;
9056;SDS011;4563;54.756;9.400;2024-02-21T01:18:15;0.30;;;0.30;;
9056;SDS011;4563;54.756;9.400;2024-02-21T01:20:44;0.87;;;0.27;;
9056;SDS011;4563;54.756;9.400;2024-02-21T01:23:10;0.30;;;0.20;;
9056;SDS011;4563;54.756;9.400;2024-02-21T01:25:37;0.53;;;0.30;;
9056;SDS011;4563;54.756;9.400;2024-02-21T01:28:04;0.20;;;0.20;;
9056;SDS011;4563;54.756;9.400;2024-02-21T01:30:31;0.40;;;0.23;;
9056;SDS011;4563;54.756;9.400;2024-02-21T01:32:58;0.20;;;0.20;;
9056;SDS011;4563;54.756;9.400;2024-02-21T01:35:24;0.20;;;0.20;;
9056;SDS011;4563;54.756;9.400;2024-02-21T01:37:52;0.20;;;0.20;;
9056;SDS011;4563;54.756;9.400;2024-02-21T01:40:19;0.57;;;0.27;;
9056;SDS011;4563;54.756;9.400;2024-02-21T01:42:46;0.40;;;0.20;;
9056;SDS011;4563;54.756;9.400;2024-02-21T01:45:13;0.53;;;0.20;;
9056;SDS011;4563;54.756;9.400;2024-02-21T01:47:40;0.20;;;0.20;;
9056;SDS011;4563;54.756;9.400;2024-02-21T01:50:07;0.17;;;0.10;;
9056;SDS011;4563;54.756;9.400;2024-02-21T01:52:35;0.27;;;0.10;;
9056;SDS011;4563;54.756;9.400;2024-02-21T01:55:04;0.30;;;0.20;;
9056;SDS011;4563;54.756;9.400;2024-02-21T01:57:32;0.10;;;0.10;;
9056;SDS011;4563;54.756;9.400;2024-02-21T01:59:58;0.40;;;0.20;;
9056;SDS011;4563;54.756;9.400;2024-02-21T02:02:25;0.20;;;0.10;;
9056;SDS011;4563;54.756;9.400;2024-02-21T02:04:53;0.50;;;0.20;;
9056;SDS011;4563;54.756;9.400;2024-02-21T02:07:20;0.40;;;0.20;;
9056;SDS011;4563;54.756;9.400;2024-02-21T02:09:47;0.67;;;0.20;;
9056;SDS011;4563;54.756;9.400;2024-02-21T02:12:16;0.30;;;0.20;;
9056;SDS011;4563;54.756;9.400;2024-02-21T02:14:42;0.10;;;0.10;;
9056;SDS011;4563;54.756;9.400;2024-02-21T02:17:09;0.50;;;0.10;;
9056;SDS011;4563;54.756;9.400;2024-02-21T02:19:37;0.20;;;0.20;;
9056;SDS011;4563;54.756;9.400;2024-02-21T02:22:05;0.23;;;0.20;;
9056;SDS011;4563;54.756;9.400;2024-02-21T02:24:36;0.10;;;0.10;;
9056;SDS011;4563;54.756;9.400;2024-02-21T02:27:03;0.10;;;0.10;;
9056;SDS011;4563;54.756;9.400;2024-02-21T02:29:31;0.10;;;0.10;;
9056;SDS011;4563;54.756;9.400;2024-02-21T02:31:58;0.10;;;0.10;;
9056;SDS011;4563;54.756;9.400;2024-02-21T02:34:25;0.20;;;0.10;;
9056;SDS011;4563;54.756;9.400;2024-02-21T02:36:52;0.20;;;0.10;;
9056;SDS011;4563;54.756;9.400;2024-02-21T02:39:19;0.10;;;0.10;;
9056;SDS011;4563;54.756;9.400;2024-02-21T02:41:47;0.10;;;0.10;;
9056;SDS011;4563;54.756;9.400;2024-02-21T02:44:14;0.00;;;0.00;;
9056;SDS011;4563;54.756;9.400;2024-02-21T02:46:41;0.13;;;0.10;;
9056;SDS011;4563;54.756;9.400;2024-02-21T02:49:08;0.60;;;0.20;;
9056;SDS011;4563;54.756;9.400;2024-02-21T02:51:35;0.10;;;0.10;;
9056;SDS011;4563;54.756;9.400;2024-02-21T02:54:02;0.30;;;0.20;;
9056;SDS011;4563;54.756;9.400;2024-02-21T02:56:29;0.43;;;0.20;;
9056;SDS011;4563;54.756;9.400;2024-02-21T02:58:57;0.23;;;0.10;;
9056;SDS011;4563;54.756;9.400;2024-02-21T03:01:24;0.23;;;0.20;;
9056;SDS011;4563;54.756;9.400;2024-02-21T03:03:50;0.50;;;0.20;;
9056;SDS011;4563;54.756;9.400;2024-02-21T03:06:17;0.20;;;0.20;;
9056;SDS011;4563;54.756;9.400;2024-02-21T03:08:44;0.23;;;0.20;;
9056;SDS011;4563;54.756;9.400;2024-02-21T03:11:11;0.43;;;0.20;;
9056;SDS011;4563;54.756;9.400;2024-02-21T03:13:37;0.70;;;0.20;;
9056;SDS011;4563;54.756;9.400;2024-02-21T03:16:06;0.20;;;0.20;;
9056;SDS011;4563;54.756;9.400;2024-02-21T03:18:33;0.80;;;0.20;;
9056;SDS011;4563;54.756;9.400;2024-02-21T03:21:00;0.30;;;0.20;;
9056;SDS011;4563;54.756;9.400;2024-02-21T03:23:27;0.50;;;0.30;;
9056;SDS011;4563;54.756;9.400;2024-02-21T03:25:53;0.20;;;0.20;;
9056;SDS011;4563;54.756;9.400;2024-02-21T03:28:20;0.30;;;0.20;;
9056;SDS011;4563;54.756;9.400;2024-02-21T03:30:47;1.03;;;0.30;;
9056;SDS011;4563;54.756;9.400;2024-02-21T03:33:15;0.17;;;0.17;;
9056;SDS011;4563;54.756;9.400;2024-02-21T03:35:42;0.30;;;0.20;;
9056;SDS011;4563;54.756;9.400;2024-02-21T03:38:08;2.37;;;0.30;;
9056;SDS011;4563;54.756;9.400;2024-02-21T03:40:35;0.40;;;0.40;;
9056;SDS011;4563;54.756;9.400;2024-02-21T03:43:02;0.50;;;0.20;;
9056;SDS011;4563;54.756;9.400;2024-02-21T03:45:29;0.50;;;0.30;;
9056;SDS011;4563;54.756;9.400;2024-02-21T03:47:56;0.83;;;0.30;;
9056;SDS011;4563;54.756;9.400;2024-02-21T03:50:24;0.73;;;0.30;;
9056;SDS011;4563;54.756;9.400;2024-02-21T03:52:52;0.37;;;0.30;;
9056;SDS011;4563;54.756;9.400;2024-02-21T03:55:19;0.50;;;0.27;;
9056;SDS011;4563;54.756;9.400;2024-02-21T03:57:46;0.63;;;0.40;;
9056;SDS011;4563;54.756;9.400;2024-02-21T04:00:13;0.17;;;0.17;;
9056;SDS011;4563;54.756;9.400;2024-02-21T04:02:41;0.20;;;0.17;;
9056;SDS011;4563;54.756;9.400;2024-02-21T04:05:07;0.67;;;0.20;;
9056;SDS011;4563;54.756;9.400;2024-02-21T04:07:37;1.03;;;0.40;;
9056;SDS011;4563;54.756;9.400;2024-02-21T04:10:04;0.43;;;0.40;;
9056;SDS011;4563;54.756;9.400;2024-02-21T04:12:31;0.70;;;0.30;;
9056;SDS011;4563;54.756;9.400;2024-02-21T04:14:58;0.37;;;0.30;;
9056;SDS011;4563;54.756;9.400;2024-02-21T04:17:25;0.23;;;0.23;;
9056;SDS011;4563;54.756;9.400;2024-02-21T04:19:52;0.80;;;0.40;;
9056;SDS011;4563;54.756;9.400;2024-02-21T04:22:30;1.13;;;0.30;;
9056;SDS011;4563;54.756;9.400;2024-02-21T04:24:58;1.27;;;0.30;;
9056;SDS011;4563;54.756;9.400;2024-02-21T04:27:25;0.40;;;0.20;;
9056;SDS011;4563;54.756;9.400;2024-02-21T04:29:53;0.30;;;0.20;;
9056;SDS011;4563;54.756;9.400;2024-02-21T04:32:20;0.30;;;0.20;;
9056;SDS011;4563;54.756;9.400;2024-02-21T04:34:46;0.40;;;0.20;;
9056;SDS011;4563;54.756;9.400;2024-02-21T04:37:13;0.97;;;0.20;;
9056;SDS011;4563;54.756;9.400;2024-02-21T04:39:40;0.77;;;0.40;;
9056;SDS011;4563;54.756;9.400;2024-02-21T04:42:08;0.90;;;0.40;;
9056;SDS011;4563;54.756;9.400;2024-02-21T04:44:35;1.03;;;0.40;;
9056;SDS011;4563;54.756;9.400;2024-02-21T04:47:01;0.83;;;0.30;;
9056;SDS011;4563;54.756;9.400;2024-02-21T04:49:29;0.50;;;0.20;;
9056;SDS011;4563;54.756;9.400;2024-02-21T04:51:56;0.70;;;0.30;;
9056;SDS011;4563;54.756;9.400;2024-02-21T04:54:23;0.40;;;0.40;;
9056;SDS011;4563;54.756;9.400;2024-02-21T04:56:50;0.50;;;0.30;;
9056;SDS011;4563;54.756;9.400;2024-02-21T04:59:18;0.73;;;0.50;;
9056;SDS011;4563;54.756;9.400;2024-02-21T05:01:45;0.27;;;0.27;;
9056;SDS011;4563;54.756;9.400;2024-02-21T05:04:12;1.17;;;0.30;;
9056;SDS011;4563;54.756;9.400;2024-02-21T05:06:39;0.63;;;0.30;;
9056;SDS011;4563;54.756;9.400;2024-02-21T05:09:06;0.33;;;0.30;;
9056;SDS011;4563;54.756;9.400;2024-02-21T05:11:34;0.60;;;0.40;;
9056;SDS011;4563;54.756;9.400;2024-02-21T05:14:01;0.60;;;0.40;;
9056;SDS011;4563;54.756;9.400;2024-02-21T05:16:30;0.20;;;0.20;;
9056;SDS011;4563;54.756;9.400;2024-02-21T05:18:57;1.07;;;0.30;;
9056;SDS011;4563;54.756;9.400;2024-02-21T05:21:24;0.43;;;0.20;;
9056;SDS011;4563;54.756;9.400;2024-02-21T05:23:50;0.30;;;0.30;;
9056;SDS011;4563;54.756;9.400;2024-02-21T05:26:19;0.27;;;0.27;;
9056;SDS011;4563;54.756;9.400;2024-02-21T05:28:47;0.63;;;0.30;;
9056;SDS011;4563;54.756;9.400;2024-02-21T05:31:14;0.60;;;0.30;;
9056;SDS011;4563;54.756;9.400;2024-02-21T05:33:42;0.80;;;0.30;;
9056;SDS011;4563;54.756;9.400;2024-02-21T05:36:09;0.70;;;0.30;;
9056;SDS011;4563;54.756;9.400;2024-02-21T05:38:36;0.47;;;0.30;;
9056;SDS011;4563;54.756;9.400;2024-02-21T05:41:03;0.40;;;0.20;;
9056;SDS011;4563;54.756;9.400;2024-02-21T05:43:30;0.40;;;0.30;;
9056;SDS011;4563;54.756;9.400;2024-02-21T05:45:57;0.87;;;0.40;;
9056;SDS011;4563;54.756;9.400;2024-02-21T05:48:24;0.47;;;0.30;;
9056;SDS011;4563;54.756;9.400;2024-02-21T05:50:52;1.20;;;0.40;;
9056;SDS011;4563;54.756;9.400;2024-02-21T05:53:19;0.60;;;0.30;;
9056;SDS011;4563;54.756;9.400;2024-02-21T05:55:46;0.20;;;0.20;;
9056;SDS011;4563;54.756;9.400;2024-02-21T05:58:12;0.50;;;0.20;;
9056;SDS011;4563;54.756;9.400;2024-02-21T06:00:39;0.50;;;0.30;;
9056;SDS011;4563;54.756;9.400;2024-02-21T06:03:06;0.90;;;0.30;;
9056;SDS011;4563;54.756;9.400;2024-02-21T06:05:36;0.83;;;0.40;;
9056;SDS011;4563;54.756;9.400;2024-02-21T06:08:05;0.60;;;0.30;;
9056;SDS011;4563;54.756;9.400;2024-02-21T06:10:32;0.30;;;0.30;;
9056;SDS011;4563;54.756;9.400;2024-02-21T06:12:58;1.33;;;0.30;;
9056;SDS011;4563;54.756;9.400;2024-02-21T06:15:25;0.50;;;0.20;;
9056;SDS011;4563;54.756;9.400;2024-02-21T06:17:52;0.20;;;0.20;;
9056;SDS011;4563;54.756;9.400;2024-02-21T06:20:19;0.40;;;0.30;;
9056;SDS011;4563;54.756;9.400;2024-02-21T06:22:45;0.30;;;0.30;;
9056;SDS011;4563;54.756;9.400;2024-02-21T06:25:14;1.30;;;0.40;;
9056;SDS011;4563;54.756;9.400;2024-02-21T06:27:40;0.77;;;0.47;;
9056;SDS011;4563;54.756;9.400;2024-02-21T06:30:07;0.57;;;0.30;;
9056;SDS011;4563;54.756;9.400;2024-02-21T06:32:35;0.43;;;0.40;;
9056;SDS011;4563;54.756;9.400;2024-02-21T06:35:02;1.10;;;0.40;;
9056;SDS011;4563;54.756;9.400;2024-02-21T06:37:29;0.40;;;0.40;;
9056;SDS011;4563;54.756;9.400;2024-02-21T06:39:57;0.40;;;0.30;;
9056;SDS011;4563;54.756;9.400;2024-02-21T06:42:25;0.90;;;0.30;;
9056;SDS011;4563;54.756;9.400;2024-02-21T06:44:53;0.70;;;0.30;;
9056;SDS011;4563;54.756;9.400;2024-02-21T06:47:21;0.30;;;0.30;;
9056;SDS011;4563;54.756;9.400;2024-02-21T06:49:48;1.03;;;0.50;;
9056;SDS011;4563;54.756;9.400;2024-02-21T06:52:17;0.57;;;0.30;;
9056;SDS011;4563;54.756;9.400;2024-02-21T06:54:45;0.40;;;0.30;;
9056;SDS011;4563;54.756;9.400;2024-02-21T06:57:12;0.53;;;0.30;;
9056;SDS011;4563;54.756;9.400;2024-02-21T06:59:40;0.63;;;0.40;;
9056;SDS011;4563;54.756;9.400;2024-02-21T07:02:07;0.50;;;0.27;;
9056;SDS011;4563;54.756;9.400;2024-02-21T07:04:34;0.40;;;0.30;;
9056;SDS011;4563;54.756;9.400;2024-02-21T07:07:01;0.70;;;0.40;;
9056;SDS011;4563;54.756;9.400;2024-02-21T07:09:28;0.77;;;0.30;;
9056;SDS011;4563;54.756;9.400;2024-02-21T07:11:57;0.50;;;0.20;;
9056;SDS011;4563;54.756;9.400;2024-02-21T07:14:23;0.60;;;0.30;;
9056;SDS011;4563;54.756;9.400;2024-02-21T07:16:53;0.40;;;0.30;;
9056;SDS011;4563;54.756;9.400;2024-02-21T07:19:22;0.50;;;0.27;;
9056;SDS011;4563;54.756;9.400;2024-02-21T07:21:48;0.43;;;0.20;;
9056;SDS011;4563;54.756;9.400;2024-02-21T07:24:16;0.60;;;0.40;;
9056;SDS011;4563;54.756;9.400;2024-02-21T07:26:42;0.67;;;0.40;;
9056;SDS011;4563;54.756;9.400;2024-02-21T07:29:10;0.40;;;0.20;;
9056;SDS011;4563;54.756;9.400;2024-02-21T07:31:40;0.40;;;0.30;;
9056;SDS011;4563;54.756;9.400;2024-02-21T07:34:08;1.07;;;0.40;;
9056;SDS011;4563;54.756;9.400;2024-02-21T07:36:35;0.23;;;0.23;;
9056;SDS011;4563;54.756;9.400;2024-02-21T07:39:03;0.40;;;0.30;;
9056;SDS011;4563;54.756;9.400;2024-02-21T07:41:30;0.40;;;0.30;;
9056;SDS011;4563;54.756;9.400;2024-02-21T07:43:58;0.50;;;0.20;;
9056;SDS011;4563;54.756;9.400;2024-02-21T07:46:25;0.40;;;0.27;;
9056;SDS011;4563;54.756;9.400;2024-02-21T07:48:52;1.83;;;0.40;;
9056;SDS011;4563;54.756;9.400;2024-02-21T07:51:20;0.20;;;0.20;;
9056;SDS011;4563;54.756;9.400;2024-02-21T07:53:47;1.17;;;0.40;;
9056;SDS011;4563;54.756;9.400;2024-02-21T07:56:13;0.53;;;0.40;;
9056;SDS011;4563;54.756;9.400;2024-02-21T07:58:41;0.60;;;0.30;;
9056;SDS011;4563;54.756;9.400;2024-02-21T08:01:08;0.60;;;0.30;;
9056;SDS011;4563;54.756;9.400;2024-02-21T08:03:34;0.60;;;0.30;;
9056;SDS011;4563;54.756;9.400;2024-02-21T08:06:02;0.93;;;0.30;;
9056;SDS011;4563;54.756;9.400;2024-02-21T08:08:31;1.00;;;0.40;;
9056;SDS011;4563;54.756;9.400;2024-02-21T08:10:58;0.50;;;0.30;;
9056;SDS011;4563;54.756;9.400;2024-02-21T08:13:24;0.70;;;0.30;;
9056;SDS011;4563;54.756;9.400;2024-02-21T08:15:53;1.17;;;0.30;;
9056;SDS011;4563;54.756;9.400;2024-02-21T08:18:20;0.83;;;0.30;;
9056;SDS011;4563;54.756;9.400;2024-02-21T08:20:47;0.30;;;0.30;;
9056;SDS011;4563;54.756;9.400;2024-02-21T08:23:15;0.33;;;0.20;;
9056;SDS011;4563;54.756;9.400;2024-02-21T08:25:44;0.70;;;0.40;;
9056;SDS011;4563;54.756;9.400;2024-02-21T08:28:11;1.00;;;0.40;;
9056;SDS011;4563;54.756;9.400;2024-02-21T08:30:38;0.47;;;0.30;;
9056;SDS011;4563;54.756;9.400;2024-02-21T08:33:05;0.70;;;0.30;;
9056;SDS011;4563;54.756;9.400;2024-02-21T08:35:32;0.97;;;0.30;;
9056;SDS011;4563;54.756;9.400;2024-02-21T08:37:58;0.43;;;0.33;;
9056;SDS011;4563;54.756;9.400;2024-02-21T08:40:25;0.60;;;0.30;;
9056;SDS011;4563;54.756;9.400;2024-02-21T08:42:53;0.57;;;0.37;;
9056;SDS011;4563;54.756;9.400;2024-02-21T08:45:20;0.27;;;0.27;;
9056;SDS011;4563;54.756;9.400;2024-02-21T08:47:47;1.03;;;0.40;;
9056;SDS011;4563;54.756;9.400;2024-02-21T08:50:14;1.50;;;0.40;;
9056;SDS011;4563;54.756;9.400;2024-02-21T08:52:40;0.80;;;0.33;;
9056;SDS011;4563;54.756;9.400;2024-02-21T08:55:07;0.40;;;0.40;;
9056;SDS011;4563;54.756;9.400;2024-02-21T08:57:34;1.07;;;0.40;;
9056;SDS011;4563;54.756;9.400;2024-02-21T09:00:05;0.73;;;0.40;;
9056;SDS011;4563;54.756;9.400;2024-02-21T09:02:35;1.03;;;0.40;;
9056;SDS011;4563;54.756;9.400;2024-02-21T09:05:03;0.50;;;0.30;;
9056;SDS011;4563;54.756;9.400;2024-02-21T09:07:31;1.10;;;0.40;;
9056;SDS011;4563;54.756;9.400;2024-02-21T09:09:57;0.50;;;0.30;;
9056;SDS011;4563;54.756;9.400;2024-02-21T09:12:24;1.17;;;0.30;;
9056;SDS011;4563;54.756;9.400;2024-02-21T09:14:51;0.60;;;0.40;;
9056;SDS011;4563;54.756;9.400;2024-02-21T09:17:19;0.60;;;0.40;;
9056;SDS011;4563;54.756;9.400;2024-02-21T09:19:47;0.60;;;0.40;;
9056;SDS011;4563;54.756;9.400;2024-02-21T09:22:14;0.40;;;0.30;;
9056;SDS011;4563;54.756;9.400;2024-02-21T09:24:40;0.30;;;0.30;;
9056;SDS011;4563;54.756;9.400;2024-02-21T09:27:07;1.17;;;0.33;;
9056;SDS011;4563;54.756;9.400;2024-02-21T09:29:34;0.53;;;0.30;;
9056;SDS011;4563;54.756;9.400;2024-02-21T09:32:01;0.40;;;0.30;;
9056;SDS011;4563;54.756;9.400;2024-02-21T09:34:30;0.50;;;0.40;;
9056;SDS011;4563;54.756;9.400;2024-02-21T09:36:57;0.30;;;0.27;;
9056;SDS011;4563;54.756;9.400;2024-02-21T09:39:23;0.73;;;0.30;;
9056;SDS011;4563;54.756;9.400;2024-02-21T09:41:52;0.57;;;0.30;;
9056;SDS011;4563;54.756;9.400;2024-02-21T09:44:22;0.40;;;0.30;;
9056;SDS011;4563;54.756;9.400;2024-02-21T09:46:56;0.53;;;0.30;;
9056;SDS011;4563;54.756;9.400;2024-02-21T09:49:31;0.40;;;0.20;;
9056;SDS011;4563;54.756;9.400;2024-02-21T09:52:00;0.83;;;0.40;;
9056;SDS011;4563;54.756;9.400;2024-02-21T09:54:28;0.73;;;0.30;;
9056;SDS011;4563;54.756;9.400;2024-02-21T09:56:56;0.60;;;0.33;;
9056;SDS011;4563;54.756;9.400;2024-02-21T09:59:23;1.43;;;0.30;;
9056;SDS011;4563;54.756;9.400;2024-02-21T10:01:50;0.83;;;0.40;;
9056;SDS011;4563;54.756;9.400;2024-02-21T10:04:17;0.47;;;0.23;;
9056;SDS011;4563;54.756;9.400;2024-02-21T10:06:46;0.30;;;0.20;;
9056;SDS011;4563;54.756;9.400;2024-02-21T10:09:19;0.20;;;0.20;;
9056;SDS011;4563;54.756;9.400;2024-02-21T10:11:47;0.73;;;0.30;;
9056;SDS011;4563;54.756;9.400;2024-02-21T10:14:14;1.17;;;0.40;;
9056;SDS011;4563;54.756;9.400;2024-02-21T10:16:42;0.47;;;0.30;;
9056;SDS011;4563;54.756;9.400;2024-02-21T10:19:15;0.23;;;0.20;;
9056;SDS011;4563;54.756;9.400;2024-02-21T10:21:43;0.23;;;0.23;;
9056;SDS011;4563;54.756;9.400;2024-02-21T10:24:25;0.80;;;0.30;;
9056;SDS011;4563;54.756;9.400;2024-02-21T10:26:58;0.30;;;0.27;;
9056;SDS011;4563;54.756;9.400;2024-02-21T10:29:25;0.20;;;0.20;;
9056;SDS011;4563;54.756;9.400;2024-02-21T10:32:02;0.20;;;0.20;;
9056;SDS011;4563;54.756;9.400;2024-02-21T10:34:33;1.27;;;0.30;;
9056;SDS011;4563;54.756;9.400;2024-02-21T10:37:02;0.40;;;0.30;;
9056;SDS011;4563;54.756;9.400;2024-02-21T10:39:29;0.50;;;0.20;;
9056;SDS011;4563;54.756;9.400;2024-02-21T10:41:57;0.40;;;0.20;;
9056;SDS011;4563;54.756;9.400;2024-02-21T10:44:28;0.57;;;0.20;;
9056;SDS011;4563;54.756;9.400;2024-02-21T10:46:55;0.57;;;0.20;;
9056;SDS011;4563;54.756;9.400;2024-02-21T10:49:23;0.87;;;0.20;;
9056;SDS011;4563;54.756;9.400;2024-02-21T10:51:53;0.30;;;0.20;;
9056;SDS011;4563;54.756;9.400;2024-02-21T10:54:32;0.77;;;0.40;;
9056;SDS011;4563;54.756;9.400;2024-02-21T10:57:06;0.20;;;0.20;;
9056;SDS011;4563;54.756;9.400;2024-02-21T10:59:34;0.33;;;0.30;;
9056;SDS011;4563;54.756;9.400;2024-02-21T11:02:03;0.17;;;0.17;;
9056;SDS011;4563;54.756;9.400;2024-02-21T11:04:30;0.20;;;0.20;;
9056;SDS011;4563;54.756;9.400;2024-02-21T11:07:01;0.77;;;0.20;;
9056;SDS011;4563;54.756;9.400;2024-02-21T11:09:31;1.23;;;0.20;;
9056;SDS011;4563;54.756;9.400;2024-02-21T11:11:59;0.33;;;0.20;;
9056;SDS011;4563;54.756;9.400;2024-02-21T11:14:28;0.27;;;0.20;;
9056;SDS011;4563;54.756;9.400;2024-02-21T11:16:57;0.20;;;0.20;;
9056;SDS011;4563;54.756;9.400;2024-02-21T11:19:25;0.57;;;0.20;;
9056;SDS011;4563;54.756;9.400;2024-02-21T11:21:53;0.20;;;0.10;;
9056;SDS011;4563;54.756;9.400;2024-02-21T11:24:28;0.53;;;0.20;;
9056;SDS011;4563;54.756;9.400;2024-02-21T11:27:07;0.20;;;0.20;;
9056;SDS011;4563;54.756;9.400;2024-02-21T11:29:39;0.47;;;0.20;;
9056;SDS011;4563;54.756;9.400;2024-02-21T11:32:09;0.33;;;0.20;;
9056;SDS011;4563;54.756;9.400;2024-02-21T11:34:36;0.30;;;0.27;;
9056;SDS011;4563;54.756;9.400;2024-02-21T11:37:04;0.20;;;0.20;;
9056;SDS011;4563;54.756;9.400;2024-02-21T11:39:40;0.27;;;0.27;;
9056;SDS011;4563;54.756;9.400;2024-02-21T11:42:09;0.20;;;0.20;;
9056;SDS011;4563;54.756;9.400;2024-02-21T11:44:37;0.20;;;0.20;;
9056;SDS011;4563;54.756;9.400;2024-02-21T11:47:07;0.30;;;0.30;;
9056;SDS011;4563;54.756;9.400;2024-02-21T11:49:36;1.20;;;0.30;;
9056;SDS011;4563;54.756;9.400;2024-02-21T11:52:04;0.37;;;0.37;;
9056;SDS011;4563;54.756;9.400;2024-02-21T11:54:32;0.30;;;0.30;;
9056;SDS011;4563;54.756;9.400;2024-02-21T11:56:59;0.50;;;0.30;;
9056;SDS011;4563;54.756;9.400;2024-02-21T11:59:29;0.20;;;0.20;;
9056;SDS011;4563;54.756;9.400;2024-02-21T12:01:58;0.40;;;0.20;;
9056;SDS011;4563;54.756;9.400;2024-02-21T12:04:25;0.97;;;0.37;;
9056;SDS011;4563;54.756;9.400;2024-02-21T12:06:52;0.47;;;0.30;;
9056;SDS011;4563;54.756;9.400;2024-02-21T12:09:19;0.30;;;0.30;;
9056;SDS011;4563;54.756;9.400;2024-02-21T12:11:56;0.17;;;0.17;;
9056;SDS011;4563;54.756;9.400;2024-02-21T12:14:24;0.20;;;0.20;;
9056;SDS011;4563;54.756;9.400;2024-02-21T12:16:52;0.47;;;0.30;;
9056;SDS011;4563;54.756;9.400;2024-02-21T12:19:20;0.43;;;0.23;;
9056;SDS011;4563;54.756;9.400;2024-02-21T12:21:47;0.47;;;0.30;;
9056;SDS011;4563;54.756;9.400;2024-02-21T12:24:15;0.83;;;0.27;;
9056;SDS011;4563;54.756;9.400;2024-02-21T12:26:47;0.20;;;0.20;;
9056;SDS011;4563;54.756;9.400;2024-02-21T12:29:13;0.20;;;0.20;;
9056;SDS011;4563;54.756;9.400;2024-02-21T12:31:40;1.13;;;0.27;;
9056;SDS011;4563;54.756;9.400;2024-02-21T12:34:08;1.37;;;0.20;;
9056;SDS011;4563;54.756;9.400;2024-02-21T12:36:35;0.20;;;0.20;;
9056;SDS011;4563;54.756;9.400;2024-02-21T12:39:06;0.30;;;0.20;;
9056;SDS011;4563;54.756;9.400;2024-02-21T12:41:34;0.30;;;0.20;;
9056;SDS011;4563;54.756;9.400;2024-02-21T12:44:03;0.30;;;0.20;;
9056;SDS011;4563;54.756;9.400;2024-02-21T12:46:32;0.30;;;0.30;;
9056;SDS011;4563;54.756;9.400;2024-02-21T12:48:58;0.30;;;0.30;;
9056;SDS011;4563;54.756;9.400;2024-02-21T12:51:27;0.20;;;0.20;;
9056;SDS011;4563;54.756;9.400;2024-02-21T12:53:54;0.80;;;0.40;;
9056;SDS011;4563;54.756;9.400;2024-02-21T12:56:21;0.30;;;0.30;;
9056;SDS011;4563;54.756;9.400;2024-02-21T12:58:49;0.30;;;0.30;;
9056;SDS011;4563;54.756;9.400;2024-02-21T13:01:16;0.63;;;0.40;;
9056;SDS011;4563;54.756;9.400;2024-02-21T13:03:42;0.43;;;0.30;;
9056;SDS011;4563;54.756;9.400;2024-02-21T13:06:09;0.47;;;0.30;;
9056;SDS011;4563;54.756;9.400;2024-02-21T13:08:37;0.20;;;0.20;;
9056;SDS011;4563;54.756;9.400;2024-02-21T13:11:05;0.23;;;0.20;;
9056;SDS011;4563;54.756;9.400;2024-02-21T13:13:32;0.20;;;0.20;;
9056;SDS011;4563;54.756;9.400;2024-02-21T13:15:59;0.20;;;0.20;;
9056;SDS011;4563;54.756;9.400;2024-02-21T13:18:26;0.63;;;0.30;;
9056;SDS011;4563;54.756;9.400;2024-02-21T13:20:53;0.20;;;0.20;;
9056;SDS011;4563;54.756;9.400;2024-02-21T13:23:19;0.20;;;0.20;;
9056;SDS011;4563;54.756;9.400;2024-02-21T13:25:48;0.20;;;0.20;;
9056;SDS011;4563;54.756;9.400;2024-02-21T13:28:15;0.20;;;0.20;;
9056;SDS011;4563;54.756;9.400;2024-02-21T13:30:42;0.20;;;0.20;;
9056;SDS011;4563;54.756;9.400;2024-02-21T13:33:09;0.10;;;0.10;;
9056;SDS011;4563;54.756;9.400;2024-02-21T13:35:37;0.10;;;0.10;;
9056;SDS011;4563;54.756;9.400;2024-02-21T13:38:03;0.10;;;0.10;;
9056;SDS011;4563;54.756;9.400;2024-02-21T13:40:30;0.10;;;0.10;;
9056;SDS011;4563;54.756;9.400;2024-02-21T13:42:59;0.00;;;0.00;;
9056;SDS011;4563;54.756;9.400;2024-02-21T13:45:26;0.00;;;0.00;;
9056;SDS011;4563;54.756;9.400;2024-02-21T13:47:52;0.10;;;0.10;;
9056;SDS011;4563;54.756;9.400;2024-02-21T13:50:19;0.10;;;0.10;;
9056;SDS011;4563;54.756;9.400;2024-02-21T13:52:48;0.10;;;0.10;;
9056;SDS011;4563;54.756;9.400;2024-02-21T13:55:14;0.27;;;0.10;;
9056;SDS011;4563;54.756;9.400;2024-02-21T13:57:41;0.10;;;0.10;;
9056;SDS011;4563;54.756;9.400;2024-02-21T14:00:10;0.10;;;0.10;;
9056;SDS011;4563;54.756;9.400;2024-02-21T14:02:37;0.10;;;0.10;;
9056;SDS011;4563;54.756;9.400;2024-02-21T14:05:04;0.10;;;0.10;;
9056;SDS011;4563;54.756;9.400;2024-02-21T14:07:31;0.20;;;0.20;;
9056;SDS011;4563;54.756;9.400;2024-02-21T14:09:59;0.10;;;0.10;;
9056;SDS011;4563;54.756;9.400;2024-02-21T14:12:25;0.20;;;0.20;;
9056;SDS011;4563;54.756;9.400;2024-02-21T14:14:52;0.20;;;0.20;;
9056;SDS011;4563;54.756;9.400;2024-02-21T14:17:23;0.20;;;0.20;;
9056;SDS011;4563;54.756;9.400;2024-02-21T14:19:50;0.10;;;0.10;;
9056;SDS011;4563;54.756;9.400;2024-02-21T14:22:17;0.20;;;0.20;;
9056;SDS011;4563;54.756;9.400;2024-02-21T14:24:45;0.10;;;0.10;;
9056;SDS011;4563;54.756;9.400;2024-02-21T14:27:12;0.10;;;0.10;;
9056;SDS011;4563;54.756;9.400;2024-02-21T14:29:39;0.10;;;0.10;;
9056;SDS011;4563;54.756;9.400;2024-02-21T14:32:05;0.10;;;0.10;;
9056;SDS011;4563;54.756;9.400;2024-02-21T14:34:36;0.17;;;0.17;;
9056;SDS011;4563;54.756;9.400;2024-02-21T14:37:03;0.20;;;0.20;;
9056;SDS011;4563;54.756;9.400;2024-02-21T14:39:30;0.20;;;0.20;;
9056;SDS011;4563;54.756;9.400;2024-02-21T14:41:59;0.20;;;0.20;;
9056;SDS011;4563;54.756;9.400;2024-02-21T14:44:26;0.20;;;0.20;;
9056;SDS011;4563;54.756;9.400;2024-02-21T14:46:53;0.20;;;0.20;;
9056;SDS011;4563;54.756;9.400;2024-02-21T14:49:20;0.30;;;0.30;;
9056;SDS011;4563;54.756;9.400;2024-02-21T14:51:48;0.20;;;0.20;;
9056;SDS011;4563;54.756;9.400;2024-02-21T14:54:15;0.20;;;0.20;;
9056;SDS011;4563;54.756;9.400;2024-02-21T14:56:41;0.30;;;0.30;;
9056;SDS011;4563;54.756;9.400;2024-02-21T14:59:08;0.20;;;0.20;;
9056;SDS011;4563;54.756;9.400;2024-02-21T15:01:35;0.23;;;0.23;;
9056;SDS011;4563;54.756;9.400;2024-02-21T15:04:04;0.30;;;0.30;;
9056;SDS011;4563;54.756;9.400;2024-02-21T15:06:31;0.20;;;0.20;;
9056;SDS011;4563;54.756;9.400;2024-02-21T15:08:59;0.30;;;0.30;;
9056;SDS011;4563;54.756;9.400;2024-02-21T15:11:25;0.40;;;0.40;;
9056;SDS011;4563;54.756;9.400;2024-02-21T15:13:52;0.40;;;0.40;;
9056;SDS011;4563;54.756;9.400;2024-02-21T15:16:19;0.40;;;0.40;;
9056;SDS011;4563;54.756;9.400;2024-02-21T15:18:46;0.30;;;0.30;;